createdAt,value
2019-06-19T00:00:52.475Z,26.54
2019-06-19T00:03:22.633Z,26.51
2019-06-19T00:05:53.041Z,26.61
2019-06-19T00:08:22.784Z,26.51
2019-06-19T00:10:52.993Z,26.36
2019-06-19T00:13:22.707Z,26.41
2019-06-19T00:15:52.517Z,26.49
2019-06-19T00:18:22.521Z,26.75
2019-06-19T00:20:52.202Z,26.62
2019-06-19T00:23:23.445Z,26.64
2019-06-19T00:25:52.668Z,26.52
2019-06-19T00:28:26.671Z,26.57
2019-06-19T00:30:53.155Z,26.10
2019-06-19T00:33:22.460Z,26.05
2019-06-19T00:35:51.812Z,26.35
2019-06-19T00:38:21.570Z,26.14
2019-06-19T00:40:51.939Z,26.40
2019-06-19T00:43:21.396Z,26.10
2019-06-19T00:45:51.326Z,26.12
2019-06-19T00:48:20.891Z,25.88
2019-06-19T00:50:51.266Z,26.10
2019-06-19T00:53:21.572Z,25.87
2019-06-19T00:56:01.538Z,26.40
2019-06-19T00:58:31.839Z,25.62
2019-06-19T01:01:01.866Z,26.14
2019-06-19T01:03:31.415Z,25.86
2019-06-19T01:06:01.048Z,25.90
2019-06-19T01:08:31.416Z,25.98
2019-06-19T01:11:01.452Z,26.05
2019-06-19T01:13:31.431Z,25.66
2019-06-19T01:16:01.568Z,25.32
2019-06-19T01:18:31.384Z,25.64
2019-06-19T01:21:01.922Z,25.60
2019-06-19T01:23:31.808Z,25.53
2019-06-19T01:26:02.083Z,25.80
2019-06-19T01:28:31.203Z,25.78
2019-06-19T01:31:01.408Z,25.25
2019-06-19T01:33:31.330Z,25.33
2019-06-19T01:36:01.309Z,25.00
2019-06-19T01:38:30.813Z,25.44
2019-06-19T01:41:01.006Z,25.22
2019-06-19T01:43:31.861Z,25.54
2019-06-19T01:46:01.298Z,25.24
2019-06-19T01:48:31.453Z,25.32
2019-06-19T01:51:01.334Z,25.04
2019-06-19T01:54:06.156Z,25.55
2019-06-19T01:56:35.054Z,25.36
2019-06-19T01:59:04.140Z,25.04
2019-06-19T02:01:34.577Z,25.00
2019-06-19T02:04:03.820Z,25.44
2019-06-19T02:06:32.798Z,25.18
2019-06-19T02:09:02.071Z,25.04
2019-06-19T02:11:31.736Z,24.99
2019-06-19T02:14:01.004Z,25.25
2019-06-19T02:16:31.175Z,25.46
2019-06-19T02:19:01.633Z,25.09
2019-06-19T02:21:31.006Z,25.18
2019-06-19T02:24:01.114Z,25.20
2019-06-19T02:26:31.558Z,25.02
2019-06-19T02:29:00.947Z,25.06
2019-06-19T02:31:33.114Z,25.25
2019-06-19T02:34:03.658Z,24.78
2019-06-19T02:36:33.305Z,24.61
2019-06-19T02:39:02.264Z,25.05
2019-06-19T02:41:31.092Z,25.05
2019-06-19T02:44:00.089Z,24.84
2019-06-19T02:46:29.195Z,25.28
2019-06-19T02:48:58.129Z,25.03
2019-06-19T02:51:27.004Z,24.98
2019-06-19T02:53:55.999Z,25.55
2019-06-19T02:56:24.895Z,24.91
2019-06-19T02:58:53.910Z,25.01
2019-06-19T03:01:22.836Z,24.64
2019-06-19T03:03:51.804Z,24.66
2019-06-19T03:06:20.670Z,24.64
2019-06-19T03:08:49.956Z,24.62
2019-06-19T03:11:18.896Z,25.04
2019-06-19T03:13:47.822Z,24.98
2019-06-19T03:16:16.787Z,24.74
2019-06-19T03:18:45.861Z,25.30
2019-06-19T03:21:14.768Z,25.29
2019-06-19T03:23:43.726Z,25.55
2019-06-19T03:26:15.350Z,24.97
2019-06-19T03:28:44.249Z,25.33
2019-06-19T03:31:32.742Z,25.48
2019-06-19T03:33:44.170Z,25.67
2019-06-19T03:36:13.145Z,25.70
2019-06-19T03:38:42.313Z,25.32
2019-06-19T03:41:11.289Z,25.10
2019-06-19T03:43:40.168Z,25.73
2019-06-19T03:46:09.246Z,25.37
2019-06-19T03:48:38.244Z,25.40
2019-06-19T03:51:07.229Z,25.03
2019-06-19T03:53:36.419Z,25.45
2019-06-19T03:56:05.380Z,25.52
2019-06-19T03:58:34.279Z,25.26
2019-06-19T04:01:03.194Z,25.64
2019-06-19T04:03:32.073Z,25.58
2019-06-19T04:06:01.193Z,25.93
2019-06-19T04:08:30.437Z,25.94
2019-06-19T04:10:59.405Z,25.85
2019-06-19T04:13:28.405Z,25.61
2019-06-19T04:15:57.411Z,25.89
2019-06-19T04:18:26.301Z,25.98
2019-06-19T04:20:55.386Z,25.83
2019-06-19T04:23:24.249Z,25.97
2019-06-19T04:25:53.245Z,25.88
2019-06-19T04:28:41.115Z,26.03
2019-06-19T04:31:10.499Z,25.93
2019-06-19T04:33:39.455Z,25.86
2019-06-19T04:36:08.981Z,25.85
2019-06-19T04:38:37.918Z,26.60
2019-06-19T04:41:08.814Z,26.30
2019-06-19T04:43:37.894Z,26.53
2019-06-19T04:46:06.877Z,26.50
2019-06-19T04:48:36.043Z,26.96
2019-06-19T04:51:05.081Z,26.70
2019-06-19T04:53:34.043Z,26.87
2019-06-19T04:56:02.935Z,26.65
2019-06-19T04:58:31.914Z,26.33
2019-06-19T05:01:00.866Z,26.75
2019-06-19T05:03:29.759Z,26.55
2019-06-19T05:05:58.813Z,27.02
2019-06-19T05:08:33.349Z,26.76
2019-06-19T05:11:02.458Z,27.25
2019-06-19T05:13:31.484Z,26.23
2019-06-19T05:16:00.434Z,27.20
2019-06-19T05:18:29.754Z,27.18
2019-06-19T05:20:58.640Z,27.25
2019-06-19T05:23:27.631Z,27.15
2019-06-19T05:25:56.532Z,27.08
2019-06-19T05:28:25.569Z,28.39
2019-06-19T05:30:54.453Z,29.46
2019-06-19T05:33:23.374Z,31.82
2019-06-19T05:35:52.367Z,33.20
2019-06-19T05:38:22.127Z,33.64
2019-06-19T05:40:51.097Z,34.44
2019-06-19T05:43:20.111Z,34.22
2019-06-19T05:45:49.081Z,34.43
2019-06-19T05:48:18.045Z,35.30
2019-06-19T05:50:46.922Z,35.57
2019-06-19T05:53:15.878Z,35.59
2019-06-19T05:55:44.828Z,36.72
2019-06-19T05:58:13.829Z,38.00
2019-06-19T06:00:43.089Z,38.25
2019-06-19T06:03:11.984Z,38.49
2019-06-19T06:05:40.920Z,37.74
2019-06-19T06:08:09.922Z,36.94
2019-06-19T06:10:39.034Z,36.99
2019-06-19T06:13:07.928Z,38.50
2019-06-19T06:15:36.950Z,38.00
2019-06-19T06:18:06.184Z,38.90
2019-06-19T06:20:42.932Z,38.72
2019-06-19T06:23:11.829Z,39.42
2019-06-19T06:25:40.823Z,39.72
2019-06-19T06:28:09.787Z,39.90
2019-06-19T06:30:38.707Z,40.13
2019-06-19T06:33:09.484Z,40.53
2019-06-19T06:35:38.695Z,41.41
2019-06-19T06:38:07.642Z,41.07
2019-06-19T06:40:47.476Z,41.20
2019-06-19T06:43:07.297Z,40.70
2019-06-19T06:45:36.320Z,40.17
2019-06-19T06:48:05.281Z,41.15
2019-06-19T06:50:34.151Z,41.84
2019-06-19T06:53:03.320Z,42.51
2019-06-19T06:55:32.238Z,41.17
2019-06-19T06:58:01.169Z,41.39
2019-06-19T07:00:37.033Z,41.73
2019-06-19T07:03:05.976Z,41.09
2019-06-19T07:05:34.839Z,41.62
2019-06-19T07:08:03.818Z,43.72
2019-06-19T07:10:32.777Z,40.99
2019-06-19T07:13:01.679Z,42.15
2019-06-19T07:15:30.897Z,41.67
2019-06-19T07:17:59.929Z,42.63
2019-06-19T07:20:28.824Z,42.93
2019-06-19T07:22:58.568Z,43.21
2019-06-19T07:25:27.499Z,42.07
2019-06-19T07:27:56.452Z,42.07
2019-06-19T07:30:25.668Z,43.10
2019-06-19T07:32:54.918Z,42.39
2019-06-19T07:35:23.850Z,41.51
2019-06-19T07:37:52.938Z,41.40
2019-06-19T07:40:22.072Z,42.29
2019-06-19T07:42:51.024Z,42.07
2019-06-19T07:45:20.087Z,41.34
2019-06-19T07:47:49.095Z,41.95
2019-06-19T07:50:18.987Z,41.05
2019-06-19T07:52:47.881Z,41.11
2019-06-19T07:55:16.854Z,41.22
2019-06-19T07:57:46.657Z,41.44
2019-06-19T08:00:15.971Z,41.91
2019-06-19T08:02:44.956Z,41.82
2019-06-19T08:05:14.019Z,42.64
2019-06-19T08:07:43.015Z,43.07
2019-06-19T08:10:12.388Z,41.89
2019-06-19T08:12:41.503Z,41.75
2019-06-19T08:26:07.396Z,43.39
2019-06-19T08:28:36.395Z,44.42
2019-06-19T08:31:05.358Z,44.26
2019-06-19T08:33:34.249Z,41.23
2019-06-19T08:36:03.261Z,41.51
2019-06-19T08:38:32.505Z,42.07
2019-06-19T08:41:01.394Z,40.93
2019-06-19T08:43:30.335Z,40.42
2019-06-19T08:45:59.300Z,41.13
2019-06-19T08:48:28.247Z,42.10
2019-06-19T08:50:57.149Z,42.79
2019-06-19T08:53:26.107Z,42.96
2019-06-19T08:55:55.103Z,43.31
2019-06-19T08:58:23.993Z,42.59
2019-06-19T09:00:52.948Z,43.48
2019-06-19T09:03:21.842Z,44.42
2019-06-19T09:05:51.064Z,42.09
2019-06-19T09:08:19.935Z,44.04
2019-06-19T09:10:57.533Z,43.79
2019-06-19T09:13:36.073Z,43.06
2019-06-19T09:16:06.012Z,42.58
2019-06-19T09:18:35.097Z,43.89
2019-06-19T09:21:04.145Z,43.70
2019-06-19T09:23:33.118Z,43.79
2019-06-19T09:26:02.422Z,44.02
2019-06-19T09:28:31.383Z,43.08
2019-06-19T09:31:00.785Z,43.68
2019-06-19T09:33:29.774Z,43.24
2019-06-19T09:35:58.671Z,42.45
2019-06-19T09:38:27.643Z,43.66
2019-06-19T09:40:56.542Z,44.25
2019-06-19T09:43:25.524Z,44.51
2019-06-19T09:45:54.511Z,45.01
2019-06-19T09:48:25.569Z,44.57
2019-06-19T09:50:55.307Z,44.12
2019-06-19T09:53:25.187Z,43.95
2019-06-19T09:55:54.833Z,42.62
2019-06-19T09:58:23.864Z,42.49
2019-06-19T10:00:52.736Z,43.64
2019-06-19T10:03:33.481Z,43.03
2019-06-19T10:05:52.627Z,42.47
2019-06-19T10:08:21.513Z,42.55
2019-06-19T10:10:50.489Z,40.87
2019-06-19T10:13:19.696Z,40.94
2019-06-19T10:16:01.296Z,42.70
2019-06-19T10:18:19.360Z,43.17
2019-06-19T10:20:48.409Z,43.32
2019-06-19T10:23:17.394Z,42.26
2019-06-19T10:25:46.327Z,40.55
2019-06-19T10:28:15.161Z,41.30
2019-06-19T10:30:44.414Z,42.38
2019-06-19T10:33:13.348Z,42.47
2019-06-19T10:35:42.330Z,42.45
2019-06-19T10:38:11.287Z,42.59
2019-06-19T10:40:40.339Z,42.44
2019-06-19T10:43:10.209Z,43.06
2019-06-19T10:45:39.184Z,42.23
2019-06-19T10:48:08.392Z,42.45
2019-06-19T10:50:37.473Z,43.12
2019-06-19T10:53:06.395Z,42.96
2019-06-19T10:55:35.288Z,43.00
2019-06-19T10:58:04.243Z,42.08
2019-06-19T11:00:33.492Z,42.08
2019-06-19T11:03:02.499Z,41.50
2019-06-19T11:05:39.567Z,41.10
2019-06-19T11:08:02.210Z,41.21
2019-06-19T11:10:31.182Z,40.93
2019-06-19T11:13:00.087Z,39.77
2019-06-19T11:15:28.988Z,40.92
2019-06-19T11:17:57.857Z,41.07
2019-06-19T11:20:26.825Z,39.27
2019-06-19T11:22:55.765Z,37.40
2019-06-19T11:25:24.651Z,37.12
2019-06-19T11:27:54.009Z,36.65
2019-06-19T11:30:23.032Z,38.10
2019-06-19T11:32:51.997Z,39.05
2019-06-19T11:35:21.420Z,39.18
2019-06-19T11:37:50.311Z,38.97
2019-06-19T11:40:19.266Z,38.23
2019-06-19T11:42:48.135Z,36.89
2019-06-19T11:45:17.315Z,36.81
2019-06-19T11:47:46.342Z,37.18
2019-06-19T11:50:15.302Z,38.03
2019-06-19T11:52:44.260Z,36.84
2019-06-19T11:55:13.235Z,37.50
2019-06-19T11:57:42.194Z,36.55
2019-06-19T12:00:12.605Z,37.52
2019-06-19T12:02:41.560Z,38.47
2019-06-19T12:05:10.677Z,37.82
2019-06-19T12:07:40.180Z,37.53
2019-06-19T12:10:09.776Z,37.14
2019-06-19T12:12:38.746Z,36.16
2019-06-19T12:15:07.949Z,36.90
2019-06-19T12:17:36.864Z,36.24
2019-06-19T12:20:07.115Z,36.18
2019-06-19T12:22:36.640Z,35.89
2019-06-19T12:25:06.296Z,36.41
2019-06-19T12:27:35.268Z,34.98
2019-06-19T12:30:06.435Z,35.50
2019-06-19T12:32:35.754Z,36.44
2019-06-19T12:35:12.370Z,36.71
2019-06-19T12:37:41.471Z,36.99
2019-06-19T12:40:12.105Z,36.94
2019-06-19T12:42:41.116Z,35.78
2019-06-19T12:45:10.518Z,35.96
2019-06-19T12:47:39.575Z,35.31
2019-06-19T12:50:09.983Z,35.92
2019-06-19T12:52:39.535Z,36.50
2019-06-19T12:55:08.525Z,37.56
2019-06-19T12:57:37.591Z,39.01
2019-06-19T13:00:07.938Z,38.01
2019-06-19T13:02:37.254Z,36.82
2019-06-19T13:05:06.382Z,36.03
2019-06-19T13:07:35.349Z,35.57
2019-06-19T13:10:04.633Z,35.70
2019-06-19T13:12:33.627Z,35.85
2019-06-19T13:15:02.589Z,36.99
2019-06-19T13:17:31.485Z,37.29
2019-06-19T13:20:00.513Z,37.67
2019-06-19T13:22:29.696Z,38.09
2019-06-19T13:24:58.684Z,37.22
2019-06-19T13:27:27.739Z,36.43
2019-06-19T13:29:57.209Z,36.32
2019-06-19T13:32:26.135Z,36.69
2019-06-19T13:34:55.180Z,38.28
2019-06-19T13:37:24.300Z,38.02
2019-06-19T13:39:53.315Z,37.62
2019-06-19T13:42:22.807Z,37.91
2019-06-19T13:44:51.717Z,38.54
2019-06-19T13:47:20.744Z,38.60
2019-06-19T13:49:49.711Z,37.93
2019-06-19T13:52:18.746Z,37.87
2019-06-19T13:54:47.710Z,38.32
2019-06-19T13:57:20.788Z,37.94
2019-06-19T13:59:47.507Z,37.63
2019-06-19T14:02:16.449Z,36.58
2019-06-19T14:04:45.393Z,35.50
2019-06-19T14:07:20.227Z,36.03
2019-06-19T14:09:45.064Z,36.77
2019-06-19T14:12:14.047Z,35.84
2019-06-19T14:14:43.002Z,35.83
2019-06-19T14:17:12.274Z,35.69
2019-06-19T14:19:41.292Z,36.18
2019-06-19T14:22:10.291Z,35.79
2019-06-19T14:24:39.477Z,36.59
2019-06-19T14:27:08.588Z,34.67
2019-06-19T14:29:37.550Z,36.04
2019-06-19T14:32:06.801Z,35.60
2019-06-19T14:34:35.795Z,35.55
2019-06-19T14:37:04.762Z,36.07
2019-06-19T14:39:34.090Z,36.25
2019-06-19T14:42:03.730Z,36.28
2019-06-19T14:44:32.742Z,35.72
2019-06-19T14:47:01.760Z,35.84
2019-06-19T14:49:30.746Z,35.79
2019-06-19T14:51:59.736Z,34.94
2019-06-19T14:54:28.694Z,34.77
2019-06-19T14:56:57.720Z,34.93
2019-06-19T14:59:26.684Z,35.18
2019-06-19T15:01:55.765Z,35.29
2019-06-19T15:04:24.677Z,34.85
2019-06-19T15:06:53.569Z,34.79
2019-06-19T15:09:22.867Z,34.86
2019-06-19T15:11:51.838Z,35.59
2019-06-19T15:14:20.857Z,35.69
2019-06-19T15:16:49.743Z,35.28
2019-06-19T15:19:18.937Z,35.63
2019-06-19T15:21:47.933Z,35.45
2019-06-19T15:24:16.888Z,35.21
2019-06-19T15:26:45.994Z,35.78
2019-06-19T15:29:15.171Z,35.03
2019-06-19T15:31:44.321Z,35.30
2019-06-19T15:34:13.233Z,35.19
2019-06-19T15:36:42.221Z,36.22
2019-06-19T15:39:11.484Z,35.84
2019-06-19T15:41:40.443Z,33.92
2019-06-19T15:44:09.770Z,34.94
2019-06-19T15:46:39.000Z,35.08
2019-06-19T15:49:08.068Z,34.75
2019-06-19T15:51:37.209Z,34.81
2019-06-19T15:54:06.309Z,35.39
2019-06-19T15:56:35.265Z,35.33
2019-06-19T15:59:04.565Z,35.67
2019-06-19T16:01:33.756Z,35.45
2019-06-19T16:04:02.769Z,34.57
2019-06-19T16:06:32.168Z,34.92
2019-06-19T16:09:01.172Z,35.99
2019-06-19T16:11:30.153Z,36.00
2019-06-19T16:13:59.056Z,35.07
2019-06-19T16:16:28.026Z,35.15
2019-06-19T16:18:57.490Z,34.91
2019-06-19T16:21:26.472Z,34.91
2019-06-19T16:23:55.653Z,34.57
2019-06-19T16:26:24.815Z,35.15
2019-06-19T16:28:53.932Z,34.87
2019-06-19T16:31:23.427Z,35.38
2019-06-19T16:33:52.519Z,35.42
2019-06-19T16:36:21.701Z,35.62
2019-06-19T16:38:53.242Z,35.34
2019-06-19T16:41:22.690Z,34.39
2019-06-19T16:43:51.593Z,33.85
2019-06-19T16:46:20.576Z,33.38
2019-06-19T16:48:49.462Z,33.53
2019-06-19T16:51:18.400Z,33.65
2019-06-19T16:53:47.436Z,34.38
2019-06-19T16:56:16.422Z,35.26
2019-06-19T16:58:45.517Z,34.74
2019-06-19T17:01:14.465Z,33.56
2019-06-19T17:03:43.324Z,33.39
2019-06-19T17:06:12.406Z,33.66
2019-06-19T17:08:41.843Z,34.22
2019-06-19T17:11:10.831Z,34.40
2019-06-19T17:13:40.577Z,34.19
2019-06-19T17:16:10.712Z,33.63
2019-06-19T17:18:40.854Z,33.87
2019-06-19T17:21:15.749Z,33.94
2019-06-19T17:23:45.022Z,33.59
2019-06-19T17:26:14.448Z,33.84
2019-06-19T17:28:43.405Z,33.51
2019-06-19T17:31:12.551Z,33.65
2019-06-19T17:33:41.648Z,33.16
2019-06-19T17:36:10.711Z,33.89
2019-06-19T17:38:39.717Z,33.47
2019-06-19T17:41:08.723Z,33.03
2019-06-19T17:43:37.721Z,33.74
2019-06-19T17:46:06.745Z,34.23
2019-06-19T17:48:35.824Z,33.65
2019-06-19T17:51:05.043Z,33.84
2019-06-19T17:53:33.966Z,34.00
2019-06-19T17:56:02.929Z,34.01
2019-06-19T17:58:31.996Z,33.58
2019-06-19T18:01:00.986Z,33.58
2019-06-19T18:03:30.122Z,33.99
2019-06-19T18:05:59.279Z,33.87
2019-06-19T18:08:28.179Z,33.06
2019-06-19T18:10:57.464Z,32.66
2019-06-19T18:13:26.361Z,33.48
2019-06-19T18:15:55.346Z,32.99
2019-06-19T18:18:24.304Z,32.92
2019-06-19T18:20:53.295Z,33.40
2019-06-19T18:23:22.438Z,32.96
2019-06-19T18:25:51.524Z,34.02
2019-06-19T18:28:21.210Z,34.07
2019-06-19T18:30:50.299Z,34.01
2019-06-19T18:33:19.305Z,33.76
2019-06-19T18:35:48.264Z,33.92
2019-06-19T18:38:17.217Z,34.42
2019-06-19T18:40:46.117Z,34.34
2019-06-19T18:43:15.092Z,34.11
2019-06-19T18:45:44.311Z,33.97
2019-06-19T18:48:13.333Z,33.44
2019-06-19T18:50:42.210Z,32.96
2019-06-19T18:53:11.197Z,33.22
2019-06-19T18:55:40.198Z,33.04
2019-06-19T18:58:09.231Z,33.33
2019-06-19T19:00:39.197Z,33.15
2019-06-19T19:03:09.962Z,33.01
2019-06-19T19:05:39.424Z,33.48
2019-06-19T19:08:08.312Z,33.71
2019-06-19T19:10:37.348Z,33.21
2019-06-19T19:13:06.828Z,33.47
2019-06-19T19:15:35.798Z,33.26
2019-06-19T19:18:05.760Z,33.64
2019-06-19T19:20:34.881Z,33.61
2019-06-19T19:23:04.245Z,33.11
2019-06-19T19:25:33.494Z,32.98
2019-06-19T19:28:05.697Z,32.50
2019-06-19T19:30:43.577Z,31.63
2019-06-19T19:33:12.926Z,31.78
2019-06-19T19:35:42.724Z,31.79
2019-06-19T19:38:15.139Z,32.16
2019-06-19T19:40:48.758Z,31.99
2019-06-19T19:43:24.763Z,32.39
2019-06-19T19:46:20.341Z,32.35
2019-06-19T19:48:50.970Z,32.39
2019-06-19T19:51:23.085Z,32.14
2019-06-19T19:53:51.677Z,30.74
2019-06-19T19:56:28.549Z,29.94
2019-06-19T19:58:57.628Z,28.41
2019-06-19T20:01:32.901Z,27.75
2019-06-19T20:04:01.776Z,27.75
2019-06-19T20:06:47.925Z,25.21
2019-06-19T20:10:14.484Z,24.78
2019-06-19T20:12:58.245Z,25.33
2019-06-19T20:15:27.482Z,23.31
2019-06-19T20:17:56.746Z,24.28
2019-06-19T20:20:25.713Z,24.75
2019-06-19T20:22:54.677Z,24.33
2019-06-19T20:25:23.934Z,24.59
2019-06-19T20:27:52.922Z,25.34
2019-06-19T20:30:21.915Z,24.86
2019-06-19T20:32:51.778Z,25.00
2019-06-19T20:35:20.653Z,25.39
2019-06-19T20:37:49.783Z,25.92
2019-06-19T20:40:18.939Z,25.73
2019-06-19T20:42:47.889Z,25.53
2019-06-19T20:45:18.031Z,25.60
2019-06-19T20:47:47.040Z,24.87
2019-06-19T20:50:16.050Z,24.99
2019-06-19T20:52:55.236Z,25.39
2019-06-19T20:55:15.900Z,25.13
2019-06-19T20:57:45.161Z,25.15
2019-06-19T21:00:16.109Z,24.45
2019-06-19T21:02:45.227Z,25.60
2019-06-19T21:05:14.433Z,25.01
2019-06-19T21:07:43.348Z,25.53
2019-06-19T21:10:12.406Z,25.39
2019-06-19T21:12:41.345Z,25.03
2019-06-19T21:15:13.469Z,25.02
2019-06-19T21:17:42.359Z,25.19
2019-06-19T21:20:11.441Z,25.43
2019-06-19T21:22:40.528Z,25.55
2019-06-19T21:25:11.046Z,25.52
2019-06-19T21:27:39.957Z,24.72
2019-06-19T21:30:09.257Z,25.10
2019-06-19T21:32:38.195Z,25.41
2019-06-19T21:35:07.421Z,25.79
2019-06-19T21:37:36.433Z,24.82
2019-06-19T21:40:05.825Z,25.32
2019-06-19T21:42:34.799Z,24.73
2019-06-19T21:45:07.422Z,25.02
2019-06-19T21:47:35.283Z,25.51
2019-06-19T21:50:04.698Z,25.42
2019-06-19T21:52:33.674Z,24.70
2019-06-19T21:55:02.739Z,24.82
2019-06-19T21:57:31.719Z,25.02
2019-06-19T22:00:00.687Z,24.38
2019-06-19T22:02:29.673Z,24.02
2019-06-19T22:04:58.969Z,23.71
2019-06-19T22:07:28.010Z,23.63
2019-06-19T22:09:56.904Z,23.17
2019-06-19T22:12:26.059Z,23.07
2019-06-19T22:14:55.054Z,23.06
2019-06-19T22:17:24.128Z,22.82
2019-06-19T22:19:53.426Z,23.05
2019-06-19T22:22:22.317Z,23.33
2019-06-19T22:24:51.280Z,23.51
2019-06-19T22:27:20.808Z,23.57
2019-06-19T22:29:49.820Z,24.18
2019-06-19T22:32:18.859Z,23.91
2019-06-19T22:34:47.716Z,23.89
2019-06-19T22:37:16.805Z,23.68
2019-06-19T22:39:45.806Z,23.88
2019-06-19T22:42:14.808Z,23.78
2019-06-19T22:44:44.085Z,23.56
2019-06-19T22:47:13.589Z,23.23
2019-06-19T22:49:42.496Z,23.64
2019-06-19T22:52:11.464Z,23.26
2019-06-19T22:54:40.391Z,23.44
2019-06-19T22:57:09.390Z,23.11
2019-06-19T22:59:38.343Z,23.34
2019-06-19T23:02:17.123Z,23.30
2019-06-19T23:04:46.340Z,23.55
2019-06-19T23:07:15.294Z,23.07
2019-06-19T23:09:44.294Z,23.10
2019-06-19T23:12:26.723Z,23.47
2019-06-19T23:14:43.954Z,23.21
2019-06-19T23:17:12.969Z,23.73
2019-06-19T23:19:42.250Z,23.50
2019-06-19T23:22:11.171Z,24.18
2019-06-19T23:24:40.061Z,24.64
2019-06-19T23:27:09.050Z,24.78
2019-06-19T23:29:37.948Z,24.30
2019-06-19T23:32:06.929Z,24.34
2019-06-19T23:34:35.823Z,24.57
2019-06-19T23:37:04.739Z,24.89
2019-06-19T23:39:33.630Z,24.47
2019-06-19T23:42:02.640Z,24.53
2019-06-19T23:44:31.535Z,24.21
2019-06-19T23:47:00.587Z,23.69
2019-06-19T23:49:29.505Z,23.82
2019-06-19T23:51:58.503Z,24.16
2019-06-19T23:54:28.458Z,24.02
2019-06-19T23:56:57.421Z,24.20
2019-06-19T23:59:26.386Z,24.18
